Terminal Aerodrome Forecast
Issued by NWS

Home | Current Version | Previous Version | Text Only | Print | Product List | Glossary On
Versions: 1 2 3 4 5 6 7 8 9 10 11 12 13 14 15 16 17
000
FTUS41 KILN 280900 AAA
TAFLUK
TAF AMD
KLUK 280904Z 2809/2906 00000KT 4SM BR SKC
     FM281400 15004KT P6SM SCT250
     FM282100 12005KT P6SM OVC200=

USA.gov is the U.S. government's official web portal to all federal, state and local government web resources and services.